地図

経路データ

SID SEASON NUMBER BASIN SUBBASIN NAME ISO_TIME NATURE LAT LON WMO_WIND WMO_PRES WMO_AGENCY TRACK_TYPE DIST2LAND LANDFALL IFLAG USA_AGENCY USA_ATCF_ID USA_LAT USA_LON USA_RECORD USA_STATUS USA_WIND USA_PRES USA_SSHS USA_R34_NE USA_R34_SE USA_R34_SW USA_R34_NW USA_R50_NE USA_R50_SE USA_R50_SW USA_R50_NW USA_R64_NE USA_R64_SE USA_R64_SW USA_R64_NW USA_POCI USA_ROCI USA_RMW USA_EYE TOKYO_LAT TOKYO_LON TOKYO_GRADE TOKYO_WIND TOKYO_PRES TOKYO_R50_DIR TOKYO_R50_LONG TOKYO_R50_SHORT TOKYO_R30_DIR TOKYO_R30_LONG TOKYO_R30_SHORT TOKYO_LAND CMA_LAT CMA_LON CMA_CAT CMA_WIND CMA_PRES HKO_LAT HKO_LON HKO_CAT HKO_WIND HKO_PRES NEWDELHI_LAT NEWDELHI_LON NEWDELHI_GRADE NEWDELHI_WIND NEWDELHI_PRES NEWDELHI_CI NEWDELHI_DP NEWDELHI_POCI REUNION_LAT REUNION_LON REUNION_TYPE REUNION_WIND REUNION_PRES REUNION_TNUM REUNION_CI REUNION_RMW REUNION_R34_NE REUNION_R34_SE REUNION_R34_SW REUNION_R34_NW REUNION_R50_NE REUNION_R50_SE REUNION_R50_SW REUNION_R50_NW REUNION_R64_NE REUNION_R64_SE REUNION_R64_SW REUNION_R64_NW BOM_LAT BOM_LON BOM_TYPE BOM_WIND BOM_PRES BOM_TNUM BOM_CI BOM_RMW BOM_R34_NE BOM_R34_SE BOM_R34_SW BOM_R34_NW BOM_R50_NE BOM_R50_SE BOM_R50_SW BOM_R50_NW BOM_R64_NE BOM_R64_SE BOM_R64_SW BOM_R64_NW BOM_ROCI BOM_POCI BOM_EYE BOM_POS_METHOD BOM_PRES_METHOD NADI_LAT NADI_LON NADI_CAT NADI_WIND NADI_PRES WELLINGTON_LAT WELLINGTON_LON WELLINGTON_WIND WELLINGTON_PRES DS824_LAT DS824_LON DS824_STAGE DS824_WIND DS824_PRES TD9636_LAT TD9636_LON TD9636_STAGE TD9636_WIND TD9636_PRES TD9635_LAT TD9635_LON TD9635_WIND TD9635_PRES TD9635_ROCI NEUMANN_LAT NEUMANN_LON NEUMANN_CLASS NEUMANN_WIND NEUMANN_PRES MLC_LAT MLC_LON MLC_CLASS MLC_WIND MLC_PRES USA_GUST BOM_GUST BOM_GUST_PER REUNION_GUST REUNION_GUST_PER USA_SEAHGT USA_SEARAD_NE USA_SEARAD_SE USA_SEARAD_SW USA_SEARAD_NW STORM_SPEED STORM_DIR
1962274N16158 1962 90 WP MM FREDA:GILDA 1962-10-01 06:00:00 TS 15.7000 158.100 main 2208 2208 __O___________ -1 15.7000 158.100 0 1003 6 9
1962274N16158 1962 90 WP MM FREDA:GILDA 1962-10-01 09:00:00 TS 15.9950 158.130 main 2239 2239 __P___________ -1 15.9950 158.130 0 1001 6 9
1962274N16158 1962 90 WP MM FREDA:GILDA 1962-10-01 12:00:00 TS 16.3000 158.200 main 2274 2274 __O___________ -1 16.3000 158.200 1 29 1000 7 18
1962274N16158 1962 90 WP MM FREDA:GILDA 1962-10-01 15:00:00 TS 16.6150 158.335 main 2309 2309 __P___________ -1 16.6150 158.335 1 33 998 7 26
1962274N16158 1962 90 WP MM FREDA:GILDA 1962-10-01 18:00:00 TS 16.9000 158.500 main 2348 2348 __O___________ -1 16.9000 158.500 2 38 997 6 31
1962274N16158 1962 90 WP MM FREDA:GILDA 1962-10-01 21:00:00 TS 17.1075 158.643 main 2373 2373 __P___________ -1 17.1075 158.643 2 38 995 5 36
1962274N16158 1962 90 WP MM FREDA:GILDA 1962-10-02 00:00:00 TS 17.3000 158.800 main 2402 2402 __O___________ -1 17.3000 158.800 2 38 993 5 37
1962274N16158 1962 90 WP MM FREDA:GILDA 1962-10-02 03:00:00 TS 17.5350 158.985 main 2431 2431 __P___________ -1 17.5350 158.985 2 38 991 6 37
1962274N16158 1962 90 WP MM FREDA:GILDA 1962-10-02 06:00:00 TS 17.8000 159.200 main 2470 2470 __O___________ -1 17.8000 159.200 2 38 990 7 38
1962274N16158 1962 90 WP MM FREDA:GILDA 1962-10-02 09:00:00 TS 18.1075 159.450 main 2509 2509 __P___________ -1 18.1075 159.450 2 43 988 8 38
1962274N16158 1962 90 WP MM FREDA:GILDA 1962-10-02 12:00:00 TS 18.4000 159.700 main 2552 2552 __O___________ -1 18.4000 159.700 3 48 986 6 40
1962274N16158 1962 90 WP MM FREDA:GILDA 1962-10-02 15:00:00 TS 18.5999 159.885 main 2581 2581 __P___________ -1 18.5999 159.885 3 48 985 6 43
1962274N16158 1962 90 WP MM FREDA:GILDA 1962-10-02 18:00:00 TS 18.8000 160.100 main 2610 2610 __O___________ -1 18.8000 160.100 3 48 985 7 46
1962274N16158 1962 90 WP MM FREDA:GILDA 1962-10-02 21:00:00 TS 19.0925 160.427 main 2653 2653 __P___________ -1 19.0925 160.427 3 48 985 9 48
1962274N16158 1962 90 WP MM FREDA:GILDA 1962-10-03 00:00:00 TS 19.4000 160.800 main 2664 2654 __O___________ -1 19.4000 160.800 3 48 985 9 50
1962274N16158 1962 90 WP MM FREDA:GILDA 1962-10-03 03:00:00 TS 19.6574 161.150 main 2668 2668 __P___________ -1 19.6574 161.150 3 48 985 10 85
1962274N16158 1962 90 WP MM FREDA:GILDA 1962-10-03 06:00:00 TS 19.4889 161.878 1004 tokyo main 2735 2735 OOOO_____O_O__ jtwc_wp WP221962 19.3000 161.400 40 0 18.4000 165.200 2 1004 0 0 0 19.9000 161.500 3 48 985 19.5000 161.500 TD 30 1000 19.3000 161.400 TC 40 19.3000 161.400 40 990 120 11 91
1962274N16158 1962 90 WP MM FREDA:GILDA 1962-10-03 09:00:00 TS 19.6439 162.316 main 2756 2748 PPPP_____P_P__ WP221962 19.5925 161.817 45 0 18.6875 165.090 2 1003 0 0 20.1424 161.843 3 48 985 19.7576 161.987 TD 37 995 19.5925 161.817 TC 45 19.5925 161.817 44 986 180 9 64
1962274N16158 1962 90 WP MM FREDA:GILDA 1962-10-03 12:00:00 TS 19.8800 162.715 1002 tokyo main 2762 2762 OOOO_____OOO__ jtwc_wp WP221962 19.9000 162.300 50 0 19.0000 165.000 2 1002 0 0 0 20.4000 162.200 3 48 985 20.0000 162.500 TS 45 990 19.9000 162.300 TC 50 19.9000 162.300 2 48 19.9000 162.300 48 983 240 10 57
1962274N16158 1962 90 WP MM FREDA:GILDA 1962-10-03 15:00:00 TS 20.1733 163.170 main 2777 2777 PPPP_____PPP__ WP221962 20.2353 162.872 55 0 19.3500 164.942 2 1002 0 0 20.6925 162.600 3 53 982 20.2276 163.038 TS 50 987 20.2353 162.872 TC 55 20.3017 162.813 2 54 20.2353 162.872 55 980 240 10 51
1962274N16158 1962 90 WP MM FREDA:GILDA 1962-10-03 18:00:00 TS 20.5213 163.566 1002 tokyo main 2785 2770 OOOO_____OPO__ jtwc_wp WP221962 20.6000 163.400 60 0 19.7000 164.900 2 1002 0 0 0 21.0000 163.000 3 58 980 20.5000 163.500 STS 55 985 20.6000 163.400 TC 60 20.6919 163.292 2 61 20.6000 163.400 62 978 240 10 42
1962274N16158 1962 90 WP MM FREDA:GILDA 1962-10-03 21:00:00 TS 20.8933 163.869 main 2778 2764 PPPP_____PPP__ WP221962 20.9998 163.775 67 1 20.0000 164.850 2 1002 0 0 21.3075 163.387 3 63 977 20.8848 163.817 STS 57 982 20.9998 163.775 TC 67 21.0612 163.700 2 68 20.9998 163.775 68 974 270 9 33
1962274N16158 1962 90 WP MM FREDA:GILDA 1962-10-04 00:00:00 TS 21.2571 164.071 1002 tokyo main 2764 2750 OOOO_____OOO__ jtwc_wp WP221962 21.4000 164.000 75 1 20.3000 164.800 2 1002 0 0 0 21.6000 163.700 4 68 975 21.3000 164.000 STS 60 980 21.4000 164.000 TC 75 21.4000 164.000 3 75 21.4000 164.000 75 971 300 8 22
1962274N16158 1962 90 WP MM FREDA:GILDA 1962-10-04 03:00:00 TS 21.6094 164.171 main 2750 2729 PPPP_____PPP__ WP221962 21.7874 164.095 77 1 20.6500 164.757 2 986 0 0 21.8799 163.903 4 72 972 21.6724 164.088 STS 62 977 21.7874 164.095 TC 77 21.7014 164.166 3 78 21.7874 164.095 78 968 300 7 10
1962274N16158 1962 90 WP MM FREDA:GILDA 1962-10-04 06:00:00 TS 21.9095 164.188 970 tokyo main 2729 2715 OOOO_____OPO__ jtwc_wp WP221962 22.1000 164.100 80 1 21.0000 164.700 9 970 0 0 0 22.1000 164.000 4 77 970 22.0000 164.100 T 65 975 22.1000 164.100 TC 80 21.9666 164.216 3 81 22.1000 164.100 82 966 300 5 0
1962274N16158 1962 90 WP MM FREDA:GILDA 1962-10-04 09:00:00 TS 22.1180 164.187 main 2715 2693 PPPP_____PPP__ WP221962 22.2800 164.123 85 2 21.2925 164.615 9 965 0 0 22.2150 164.023 4 77 968 22.2800 164.123 T 67 972 22.2800 164.123 TC 85 22.1986 164.184 3 84 22.2800 164.123 85 965 300 4 355
1962274N16158 1962 90 WP MM FREDA:GILDA 1962-10-04 12:00:00 TS 22.2857 164.143 960 tokyo main 2693 2679 OOOO_____OOO__ jtwc_wp WP221962 22.4000 164.100 90 2 21.6000 164.500 9 960 0 0 0 22.3000 164.000 4 77 966 22.5000 164.100 T 70 970 22.4000 164.100 TC 90 22.4000 164.100 4 88 22.4000 164.100 88 964 300 4 343
1962274N16158 1962 90 WP MM FREDA:GILDA 1962-10-04 15:00:00 TS 22.4755 164.075 main 2679 2657 PPPP_____PPP__ WP221962 22.5500 164.023 90 2 21.9999 164.380 9 960 0 0 22.4350 164.030 4 82 964 22.6650 164.022 T 72 967 22.5500 164.023 TC 90 22.5787 164.026 4 90 22.5500 164.023 90 962 300 4 335
1962274N16158 1962 90 WP MM FREDA:GILDA 1962-10-04 18:00:00 TS 22.6614 163.959 960 tokyo main 2657 2634 OOOO_____OPO__ jtwc_wp WP221962 22.7000 163.900 90 2 22.4000 164.200 9 960 0 0 0 22.6000 164.000 5 87 962 22.8000 163.900 T 75 965 22.7000 163.900 TC 90 22.7300 163.910 4 93 22.7000 163.900 92 960 300 5 324
1962274N16158 1962 90 WP MM FREDA:GILDA 1962-10-04 21:00:00 TS 22.8413 163.789 main 2634 2604 PPPP_____PPP__ WP221962 22.8500 163.757 95 2 22.7301 163.900 9 960 0 0 22.7925 163.830 5 87 959 22.9500 163.757 T 77 962 22.8500 163.757 TC 95 22.8662 163.764 4 95 22.8500 163.757 95 958 300 5 317
1962274N16158 1962 90 WP MM FREDA:GILDA 1962-10-05 00:00:00 TS 23.0143 163.600 960 tokyo main 2604 2574 OOOO_____OOO__ jtwc_wp WP221962 23.0000 163.600 100 3 23.0000 163.600 9 960 0 0 0 23.0000 163.600 5 87 957 23.1000 163.600 T 80 960 23.0000 163.600 TC 100 23.0000 163.600 4 98 23.0000 163.600 98 956 300 5 317
1962274N16158 1962 90 WP MM FREDA:GILDA 1962-10-05 03:00:00 TS 23.1865 163.441 main 2574 2559 PPPP_____PPP__ WP221962 23.1500 163.457 100 3 23.2299 163.435 9 960 0 0 23.2299 163.408 5 92 955 23.2500 163.450 T 82 957 23.1500 163.457 TC 100 23.1461 163.419 4 98 23.1500 163.457 99 954 300 4 318
1962274N16158 1962 90 WP MM FREDA:GILDA 1962-10-05 06:00:00 TS 23.3418 163.275 960 tokyo main 2559 2529 OOOO_____OPO__ jtwc_wp WP221962 23.3000 163.300 100 3 23.4000 163.300 9 960 0 0 0 23.4000 163.200 5 97 953 23.4000 163.300 ST 85 955 23.3000 163.300 TC 100 23.2927 163.228 4 98 23.3000 163.300 100 952 300 4 310
1962274N16158 1962 90 WP MM FREDA:GILDA 1962-10-05 09:00:00 TS 23.4687 163.076 main 2529 2506 PPPP_____PPP__ WP221962 23.4500 163.093 100 3 23.5075 163.100 9 960 0 0 23.4151 162.942 5 97 952 23.5649 163.165 ST 85 955 23.4500 163.093 TC 100 23.4430 163.047 4 98 23.4500 163.093 99 951 270 4 304
1962274N16158 1962 90 WP MM FREDA:GILDA 1962-10-05 12:00:00 TS 23.5857 162.886 960 tokyo main 2506 2483 OOOO_____OOO__ jtwc_wp WP221962 23.6000 162.900 100 3 23.6000 162.900 9 960 0 0 0 23.4000 162.700 5 97 951 23.7000 163.000 ST 85 955 23.6000 162.900 TC 100 23.6000 162.900 4 98 23.6000 162.900 98 951 240 4 308
1962274N16158 1962 90 WP MM FREDA:GILDA 1962-10-05 15:00:00 TS 23.7195 162.726 main 2483 2468 PPPP_____PPP__ WP221962 23.7425 162.770 100 3 23.7950 162.728 9 957 0 0 23.4775 162.505 5 97 950 23.7651 162.742 ST 87 952 23.7425 162.770 TC 100 23.7718 162.798 4 98 23.7425 162.770 98 950 240 4 317
1962274N16158 1962 90 WP MM FREDA:GILDA 1962-10-05 18:00:00 TS 23.8500 162.619 955 tokyo main 2468 2455 OOOO_____OPO__ jtwc_wp WP221962 23.9000 162.700 100 3 23.9000 162.600 9 955 0 0 0 23.6000 162.400 5 97 949 23.8000 162.500 ST 90 950 23.9000 162.700 TC 100 23.9499 162.732 4 99 23.9000 162.700 98 949 240 3 329
1962274N16158 1962 90 WP MM FREDA:GILDA 1962-10-05 21:00:00 TS 23.9622 162.572 main 2455 2448 PPPP_____PPP__ WP221962 24.1075 162.677 100 3 23.7000 162.512 9 952 0 0 23.7425 162.412 5 97 948 23.8424 162.348 ST 90 950 24.1075 162.677 TC 100 24.1280 162.701 4 99 24.1075 162.677 99 949 240 2 352
1962274N16158 1962 90 WP MM FREDA:GILDA 1962-10-06 00:00:00 TS 24.0714 162.586 950 tokyo main 2448 2441 OOOO_____OOO__ jtwc_wp WP221962 24.3000 162.700 100 3 23.5000 162.500 9 950 0 0 0 23.9000 162.500 5 97 948 23.9000 162.300 ST 90 950 24.3000 162.700 TC 100 24.3000 162.700 4 100 24.3000 162.700 100 949 240 2 15
1962274N16158 1962 90 WP MM FREDA:GILDA 1962-10-06 03:00:00 TS 24.1745 162.641 main 2441 2441 PPPP_____PPP__ WP221962 24.4000 162.743 100 3 23.5675 162.578 9 950 0 0 24.0350 162.593 5 97 949 23.9700 162.370 ST 87 952 24.4000 162.743 TC 100 24.4491 162.717 4 100 24.4000 162.743 100 950 210 3 27
1962274N16158 1962 90 WP MM FREDA:GILDA 1962-10-06 06:00:00 TS 24.3132 162.723 950 tokyo main 2443 2436 OOOO_____OPO__ jtwc_wp WP221962 24.5000 162.800 100 3 23.8000 162.700 9 950 0 0 0 24.2000 162.700 5 97 950 24.1000 162.500 ST 85 955 24.5000 162.800 TC 100 24.5925 162.762 4 100 24.5000 162.800 100 952 180 4 22
1962274N16158 1962 90 WP MM FREDA:GILDA 1962-10-06 09:00:00 TS 24.5285 162.797 main 2438 2425 PPPP_____PPP__ WP221962 24.6850 162.850 100 3 24.1350 162.807 9 950 0 0 24.4425 162.800 5 97 953 24.3275 162.593 ST 85 955 24.6850 162.850 TC 100 24.7397 162.827 4 100 24.6850 162.850 100 953 180 5 17
1962274N16158 1962 90 WP MM FREDA:GILDA 1962-10-06 12:00:00 TS 24.7714 162.871 950 tokyo main 2427 2414 OOOO_____OOO__ jtwc_wp WP221962 24.9000 162.900 100 3 24.5000 162.900 9 950 0 0 0 24.7000 162.900 5 97 956 24.6000 162.700 ST 85 955 24.9000 162.900 TC 100 24.9000 162.900 4 100 24.9000 162.900 100 954 180 5 16
1962274N16158 1962 90 WP MM FREDA:GILDA 1962-10-06 15:00:00 TS 24.9793 162.944 main 2414 2409 PPPP_____PPP__ WP221962 25.1000 162.943 100 3 24.7425 162.950 9 950 0 0 24.8850 163.008 5 97 957 24.8500 162.857 ST 85 955 25.1000 162.943 TC 100 25.0775 162.964 4 98 25.1000 162.943 100 955 180 4 17
1962274N16158 1962 90 WP MM FREDA:GILDA 1962-10-06 18:00:00 TS 25.1957 163.019 950 tokyo main 2409 2403 OOOO_____OPO__ jtwc_wp WP221962 25.3000 163.000 100 3 25.0000 163.000 9 950 0 0 0 25.1000 163.100 5 97 959 25.1000 163.000 ST 85 955 25.3000 163.000 TC 100 25.2700 163.035 4 96 25.3000 163.000 100 957 180 5 17
1962274N16158 1962 90 WP MM FREDA:GILDA 1962-10-06 21:00:00 TS 25.4443 163.102 main 2405 2393 PPPP_____PPP__ WP221962 25.4925 163.093 95 2 25.3925 163.100 9 955 0 0 25.4350 163.158 5 92 960 25.3275 163.065 ST 82 957 25.4925 163.093 TC 95 25.4775 163.114 4 94 25.4925 163.093 96 958 150 5 16
1962274N16158 1962 90 WP MM FREDA:GILDA 1962-10-07 00:00:00 TS 25.7143 163.186 960 tokyo main 2395 2383 OOOO_____OOO__ jtwc_wp WP221962 25.7000 163.200 90 2 25.8000 163.200 9 960 0 0 0 25.8000 163.200 5 87 961 25.6000 163.100 T 80 960 25.7000 163.200 TC 90 25.7000 163.200 4 92 25.7000 163.200 92 959 120 6 15
1962274N16158 1962 90 WP MM FREDA:GILDA 1962-10-07 03:00:00 TS 25.9939 163.266 main 2385 2367 PPPP_____PPP__ WP221962 25.9425 163.300 90 2 26.1225 163.258 9 960 0 0 26.1075 163.250 5 87 962 25.9925 163.150 T 80 960 25.9425 163.300 TC 90 25.9073 163.305 4 91 25.9425 163.300 91 960 120 6 14
1962274N16158 1962 90 WP MM FREDA:GILDA 1962-10-07 06:00:00 TS 26.2761 163.345 960 tokyo main 2367 2364 OOOO_____OPO__ jtwc_wp WP221962 26.2000 163.400 90 2 26.4000 163.300 9 960 0 0 0 26.4000 163.300 5 87 964 26.4000 163.200 T 80 960 26.2000 163.400 TC 90 26.1326 163.415 4 90 26.2000 163.400 90 962 120 6 15
1962274N16158 1962 90 WP MM FREDA:GILDA 1962-10-07 09:00:00 TS 26.5320 163.425 main 2364 2355 PPPP_____PPP__ WP221962 26.4275 163.508 90 2 26.6425 163.350 9 960 0 0 26.6925 163.343 5 87 965 26.7150 163.243 T 77 962 26.4275 163.508 TC 90 26.3916 163.517 4 89 26.4275 163.508 89 963 150 6 14
1962274N16158 1962 90 WP MM FREDA:GILDA 1962-10-07 12:00:00 TS 26.8143 163.500 960 tokyo main 2355 2339 OOOO_____OOO__ jtwc_wp WP221962 26.7000 163.600 90 2 26.9000 163.400 9 960 0 0 0 27.0000 163.400 5 87 966 27.0000 163.300 T 75 965 26.7000 163.600 TC 90 26.7000 163.600 4 88 26.7000 163.600 88 965 180 6 11
1962274N16158 1962 90 WP MM FREDA:GILDA 1962-10-07 15:00:00 TS 27.1625 163.556 main 2342 2325 PPPP_____PPP__ WP221962 27.0700 163.665 85 2 27.2125 163.428 9 962 0 0 27.3575 163.478 5 82 967 27.3075 163.385 T 75 965 27.0700 163.665 TC 85 27.0501 163.608 4 85 27.0700 163.665 85 966 180 7 8
1962274N16158 1962 90 WP MM FREDA:GILDA 1962-10-07 18:00:00 TS 27.5503 163.614 965 tokyo main 2320 2309 OOOO_____OPO__ jtwc_wp WP221962 27.5000 163.700 80 1 27.6000 163.500 9 965 0 0 0 27.7000 163.600 4 77 968 27.6000 163.500 T 75 965 27.5000 163.700 TC 80 27.4522 163.600 4 83 27.5000 163.700 82 967 180 8 8
1962274N16158 1962 90 WP MM FREDA:GILDA 1962-10-07 21:00:00 TS 27.9290 163.682 main 2313 2289 PPPP_____PPP__ WP221962 27.9275 163.685 80 1 28.0700 163.670 9 967 0 0 27.9501 163.800 4 77 969 27.7975 163.628 T 72 967 27.9275 163.685 TC 80 27.9031 163.618 4 80 27.9275 163.685 80 968 150 8 11
1962274N16158 1962 90 WP MM FREDA:GILDA 1962-10-08 00:00:00 TS 28.3571 163.786 970 tokyo main 2279 2245 OOOO_____OOO__ jtwc_wp WP221962 28.4000 163.700 80 1 28.6000 163.900 9 970 0 0 0 28.2000 164.000 4 77 970 28.1000 163.800 T 70 970 28.4000 163.700 TC 80 28.4000 163.700 4 78 28.4000 163.700 78 969 120 10 13
1962274N16158 1962 90 WP MM FREDA:GILDA 1962-10-08 03:00:00 TS 28.8654 163.923 main 2235 2197 PPPP_____PPP__ WP221962 28.9273 163.790 77 1 29.1499 164.135 9 970 0 0 28.5048 164.086 4 72 971 28.6900 164.020 T 70 970 28.9273 163.790 TC 77 28.9311 163.848 4 76 28.9273 163.790 76 970 150 11 16
1962274N16158 1962 90 WP MM FREDA:GILDA 1962-10-08 06:00:00 TS 29.4291 164.139 970 tokyo main 2197 2155 OOOO_____OPO__ jtwc_wp WP221962 29.5000 164.000 75 1 29.7000 164.400 9 970 0 0 0 28.9000 164.200 4 68 973 29.4000 164.300 T 70 970 29.5000 164.000 TC 75 29.5036 164.073 4 75 29.5000 164.000 75 972 180 12 22
1962274N16158 1962 90 WP MM FREDA:GILDA 1962-10-08 09:00:00 TS 30.0023 164.453 main 2160 2119 PPPP_____PPP__ WP221962 30.0999 164.340 72 1 30.2000 164.693 9 970 0 0 29.3524 164.441 4 68 974 30.0649 164.628 T 67 972 30.0999 164.340 TC 72 30.0994 164.386 4 73 30.0999 164.340 73 973 210 13 28
1962274N16158 1962 90 WP MM FREDA:GILDA 1962-10-08 12:00:00 TS 30.6000 164.857 970 tokyo main 2125 2091 OOOO_____OOO__ jtwc_wp WP221962 30.7000 164.800 70 1 30.7000 165.000 9 970 0 0 0 30.0000 164.800 4 68 976 30.7000 165.000 T 65 975 30.7000 164.800 TC 70 30.7000 164.800 4 72 30.7000 164.800 72 975 240 14 31
1962274N16158 1962 90 WP MM FREDA:GILDA 1962-10-08 15:00:00 TS 31.2183 165.307 main 2091 2063 PPPP_____PPP__ WP221962 31.2497 165.306 70 1 31.2572 165.278 9 970 0 0 30.9926 165.268 4 68 978 31.2571 165.364 T 65 975 31.2497 165.306 TC 70 31.2719 165.324 4 69 31.2497 165.306 70 976 240 15 34
1962274N16158 1962 90 WP MM FREDA:GILDA 1962-10-08 18:00:00 TS 31.8348 165.835 970 tokyo main 2063 2042 OOOO_____OPO__ jtwc_wp WP221962 31.8000 165.900 70 1 31.8000 165.600 9 970 0 0 0 32.0000 165.800 4 68 980 31.8000 165.800 T 65 975 31.8000 165.900 TC 70 31.8438 165.945 4 67 31.8000 165.900 68 978 240 15 39
1962274N16158 1962 90 WP MM FREDA:GILDA 1962-10-08 21:00:00 TS 32.4141 166.435 main 2042 2025 PPPP_____PPP__ WP221962 32.3926 166.585 65 1 32.2500 166.028 9 970 0 0 32.6446 166.287 4 68 981 32.4074 166.355 T 62 977 32.3926 166.585 TC 65 32.4186 166.619 4 64 32.3926 166.585 65 979 270 16 42
1962274N16158 1962 90 WP MM FREDA:GILDA 1962-10-09 00:00:00 TS 32.9857 167.071 970 tokyo main 2031 2018 OOOO_____OOO__ jtwc_wp WP221962 33.0000 167.300 60 0 32.7000 166.500 9 970 0 0 0 33.2000 166.800 4 68 983 33.0000 167.000 STS 60 980 33.0000 167.300 TC 60 33.0000 167.300 2 62 33.0000 167.300 62 981 300 16 42
1962274N16158 1962 90 WP MM FREDA:GILDA 1962-10-09 03:00:00 TS 33.5739 167.691 main 2016 2006 PPPP_____PPP__ WP221962 33.5996 167.966 60 0 33.2266 166.899 9 970 0 0 33.8998 167.378 4 68 984 33.5152 167.708 STS 57 980 33.5996 167.966 TC 60 33.5764 167.951 2 59 33.5996 167.966 60 982 270 16 41
1962274N16158 1962 90 WP MM FREDA:GILDA 1962-10-09 06:00:00 TS 34.1661 168.314 970 tokyo main 2005 2001 OOOO_____OPO__ jtwc_wp WP221962 34.2000 168.600 60 0 33.8000 167.400 9 970 0 0 0 34.6000 168.000 4 68 986 34.0000 168.400 STS 55 980 34.2000 168.600 TC 60 34.1625 168.597 2 57 34.2000 168.600 58 984 240 16 42
1962274N16158 1962 90 WP MM FREDA:GILDA 1962-10-09 09:00:00 TS 34.7296 168.938 main 2003 1985 PPPP_____PPP__ WP221962 34.7848 169.223 55 0 34.3250 168.128 9 975 0 0 35.2064 168.600 4 63 987 34.4540 168.945 STS 52 982 34.7848 169.223 TC 55 34.7673 169.220 2 54 34.7848 169.223 55 985 210 16 41
1962274N16158 1962 90 WP MM FREDA:GILDA 1962-10-09 12:00:00 TS 35.3429 169.571 980 tokyo main 1989 1950 OOOO_____OOO__ jtwc_wp WP221962 35.4000 169.800 50 0 35.0000 169.000 9 980 0 0 0 35.8000 169.300 3 58 989 35.0000 169.500 STS 50 985 35.4000 169.800 TC 50 35.4000 169.800 2 52 35.4000 169.800 52 986 180 17 38
1962274N16158 1962 90 WP MM FREDA:GILDA 1962-10-09 15:00:00 TS 36.0640 170.229 main 1940 1903 PPPP_____PPP__ WP221962 36.0847 170.323 50 0 35.9972 169.919 9 985 0 0 36.3968 170.171 3 53 990 35.7326 170.220 STS 47 985 36.0847 170.323 TC 50 36.0672 170.324 2 50 36.0847 170.323 50 988 180 19 35
1962274N16158 1962 90 WP MM FREDA:GILDA 1962-10-09 18:00:00 TS 36.8675 170.904 990 tokyo main 1899 1866 OOOO_____OPO__ jtwc_wp WP221962 36.8000 170.800 50 0 37.1000 170.900 9 990 0 0 0 37.1000 171.200 3 48 991 36.6000 171.000 TS 45 985 36.8000 170.800 TC 50 36.7629 170.804 2 48 36.8000 170.800 48 990 180 19 34
1962274N16158 1962 90 WP MM FREDA:GILDA 1962-10-09 21:00:00 TS 37.6041 171.544 main 1866 1830 PPPP_____PPP__ WP221962 37.3286 171.023 47 0 37.9816 171.885 9 990 0 0 37.9243 172.430 3 48 991 37.5356 171.757 TS 42 987 37.3286 171.023 TC 47 37.4772 171.257 2 46 37.5054 171.253 46 991 150 21 35
1962274N16158 1962 90 WP MM FREDA:GILDA 1962-10-10 00:00:00 TS 38.5526 172.395 990 tokyo main 1827 1758 OOOO_____OOO__ jtwc_wp WP221962 38.2000 171.700 45 0 39.0000 172.900 9 990 0 0 0 39.0000 173.600 3 48 991 38.5000 172.500 TS 40 990 38.2000 171.700 TC 45 38.2000 171.700 2 45 38.2000 171.700 45 992 120 31 34
1962274N16158 1962 90 WP MM FREDA:GILDA 1962-10-10 03:00:00 TS 40.1786 173.799 main 1754 1692 PPP______P____ WP221962 39.8716 173.565 42 0 40.4866 173.840 9 990 0 0 40.4844 174.228 3 48 991 TS 39.8716 173.565 TC 42 2 41 36
1962274N16158 1962 90 WP MM FREDA:GILDA 1962-10-10 06:00:00 TS 41.8933 175.580 990 tokyo main 1678 1455 OOO______O____ jtwc_wp WP221962 41.8000 176.000 40 0 42.0000 175.100 9 990 0 0 0 42.0000 175.100 3 48 992 41.8000 176.000 TC 40 2 43 42
1962274N16158 1962 90 WP MM FREDA:GILDA 1962-10-10 09:00:00 TS 43.4011 177.689 main 1441 1237 PPP______P____ WP221962 43.6279 178.225 37 0 43.0760 177.020 9 991 0 0 43.1439 176.889 3 43 992 43.6279 178.225 TC 37 2 42 50
1962274N16158 1962 90 EP CP FREDA:GILDA 1962-10-10 12:00:00 MX 44.6000 180.020 992 tokyo main 1224 1055 OOO______O____ jtwc_wp WP221962 45.0000 -179.500 35 0 44.0000 179.300 9 992 0 0 0 44.0000 179.300 9 38 992 45.0000 180.500 TC 35 39 60
1962274N16158 1962 90 EP CP FREDA:GILDA 1962-10-10 15:00:00 TS 45.3395 182.391 main 1051 929 PP_______P____ WP221962 45.5183 -177.229 32 -1 44.9820 -178.369 9 993 0 0 9 45.5183 -177.229 TC 32 34 72
1962274N16158 1962 90 EP CP FREDA:GILDA 1962-10-10 18:00:00 TS 45.6667 184.667 main 922 OO_______O____ jtwc_wp WP221962 45.5000 -175.000 30 -1 46.0000 184.000 9 994 0 0 0 45.5000 185.000 TC 30 32 78

デジタル台風データ・検索

IBTrACS Databaseについて

本データベースは、米国NOAAが公開する1842年以降の世界の熱帯低気圧のベストトラックデータアーカイブInternational Best Track Archive for Climate Stewardship (IBTrACS)を、ウェブで閲覧しやすい形式に変換したものです。

最終更新日:2021-12-06